Time;durP1;ratioP1;P1;durP2;ratioP2;P2;SDS_P1;SDS_P2;PMS_P1;PMS_P2;Temp;Humidity;BMP_temperature;BMP_pressure;BME280_temperature;BME280_humidity;BME280_pressure;Samples;Min_cycle;Max_cycle;Signal;HPM_P1;HPM_P2
2022/03/26 00:01:30;;;;;;;23.20;11.38;;;13.30;49.00;;;;;;5048354;28;20442;-61
2022/03/26 00:03:55;;;;;;;23.05;10.98;;;13.20;49.00;;;;;;5034628;28;20029;-62
2022/03/26 00:06:21;;;;;;;23.23;11.82;;;13.20;49.00;;;;;;5018583;28;20462;-62
2022/03/26 00:08:49;;;;;;;21.10;11.38;;;13.20;49.10;;;;;;5035825;28;20441;-62
2022/03/26 00:11:15;;;;;;;20.35;11.65;;;13.20;49.20;;;;;;5049585;28;20041;-61
2022/03/26 00:13:41;;;;;;;22.08;11.77;;;13.20;49.30;;;;;;5050861;28;20057;-61
2022/03/26 00:16:07;;;;;;;23.88;11.57;;;13.20;49.40;;;;;;5053572;28;20067;-61
2022/03/26 00:18:32;;;;;;;18.23;10.43;;;13.10;49.40;;;;;;5034483;28;20029;-62
2022/03/26 00:20:58;;;;;;;20.35;11.10;;;13.10;49.50;;;;;;5044730;28;20076;-62
2022/03/26 00:23:24;;;;;;;20.73;11.20;;;13.10;49.50;;;;;;5033456;28;20351;-62
2022/03/26 00:25:50;;;;;;;22.17;10.50;;;13.10;49.50;;;;;;5017053;28;20044;-61
2022/03/26 00:28:16;;;;;;;18.63;11.02;;;13.10;49.50;;;;;;5034461;28;20045;-62
2022/03/26 00:30:42;;;;;;;17.38;10.55;;;13.10;49.50;;;;;;5035269;28;20028;-61
2022/03/26 00:33:08;;;;;;;20.55;10.88;;;13.10;49.60;;;;;;5051410;28;20085;-61
2022/03/26 00:35:34;;;;;;;22.92;11.40;;;13.10;49.60;;;;;;5033289;28;20037;-61
2022/03/26 00:38:00;;;;;;;18.85;11.50;;;13.00;49.60;;;;;;5037732;28;20116;-61
2022/03/26 00:40:26;;;;;;;21.58;11.15;;;13.00;49.60;;;;;;5017236;28;20033;-61
2022/03/26 00:42:51;;;;;;;21.08;10.18;;;13.00;49.70;;;;;;5017343;28;20084;-61
2022/03/26 00:45:17;;;;;;;19.73;10.02;;;13.00;49.70;;;;;;5033069;28;20033;-62
2022/03/26 00:47:43;;;;;;;21.95;12.75;;;13.00;49.80;;;;;;5045911;28;20374;-61
2022/03/26 00:50:10;;;;;;;22.90;11.07;;;13.00;49.90;;;;;;5053913;28;20037;-61
2022/03/26 00:52:36;;;;;;;18.83;11.48;;;12.90;49.90;;;;;;5051465;28;20039;-61
2022/03/26 00:55:02;;;;;;;22.55;12.32;;;12.90;49.90;;;;;;5053915;28;20373;-62
2022/03/26 00:57:28;;;;;;;20.27;11.48;;;12.90;49.90;;;;;;5046485;28;20033;-61
2022/03/26 00:59:54;;;;;;;21.15;11.27;;;12.90;49.90;;;;;;5036993;28;20453;-62
2022/03/26 01:02:19;;;;;;;22.67;12.23;;;12.80;50.00;;;;;;5042254;28;20036;-62
2022/03/26 01:04:45;;;;;;;24.65;12.23;;;12.80;50.60;;;;;;5033462;28;20037;-61
2022/03/26 01:07:10;;;;;;;24.85;12.05;;;12.80;50.10;;;;;;5038765;28;20474;-61
2022/03/26 01:09:36;;;;;;;28.52;13.20;;;12.80;50.20;;;;;;5057679;28;20059;-62
2022/03/26 01:12:02;;;;;;;21.17;11.07;;;12.80;50.30;;;;;;5053617;28;20032;-61
2022/03/26 01:14:28;;;;;;;23.65;12.60;;;12.70;50.30;;;;;;5036707;28;20021;-62
2022/03/26 01:16:53;;;;;;;20.15;11.52;;;12.70;50.40;;;;;;5037680;28;20036;-62
2022/03/26 01:19:19;;;;;;;24.13;12.93;;;12.70;50.50;;;;;;5038676;28;20382;-62
2022/03/26 01:21:45;;;;;;;22.42;12.65;;;12.70;50.50;;;;;;5037927;28;20025;-61
2022/03/26 01:24:10;;;;;;;22.50;12.27;;;12.60;50.50;;;;;;5039657;28;20033;-62
2022/03/26 01:26:36;;;;;;;22.35;13.32;;;12.60;50.60;;;;;;5037623;28;20088;-62
2022/03/26 01:29:02;;;;;;;26.02;13.07;;;12.60;50.70;;;;;;5037304;28;20083;-61
2022/03/26 01:31:28;;;;;;;22.02;12.82;;;12.60;50.70;;;;;;5036009;28;20041;-62
2022/03/26 01:33:54;;;;;;;23.13;12.82;;;12.50;50.80;;;;;;5041410;28;20029;-62
2022/03/26 01:36:19;;;;;;;22.55;13.18;;;12.50;50.80;;;;;;5036360;28;20034;-62
2022/03/26 01:38:45;;;;;;;21.50;13.02;;;12.50;50.90;;;;;;5048027;28;20124;-61
2022/03/26 01:41:11;;;;;;;21.45;12.85;;;12.50;51.00;;;;;;5054700;28;20035;-62
2022/03/26 01:43:38;;;;;;;24.38;13.73;;;12.40;51.10;;;;;;5039406;28;20112;-62
2022/03/26 01:46:04;;;;;;;23.08;14.00;;;12.40;51.10;;;;;;5036265;28;20033;-61
2022/03/26 01:48:31;;;;;;;21.13;13.15;;;12.40;51.20;;;;;;5037156;28;20466;-61
2022/03/26 01:50:57;;;;;;;23.67;13.95;;;12.30;51.30;;;;;;5037141;28;20025;-61
2022/03/26 01:53:22;;;;;;;22.05;12.63;;;12.30;51.30;;;;;;5050249;28;20033;-63
2022/03/26 01:55:49;;;;;;;25.38;13.38;;;12.30;51.40;;;;;;5047406;28;20030;-63
2022/03/26 01:58:15;;;;;;;23.20;13.68;;;12.30;52.00;;;;;;5054738;28;20062;-63
2022/03/26 02:00:41;;;;;;;22.40;12.80;;;12.30;51.40;;;;;;5044302;28;20025;-63
2022/03/26 02:03:08;;;;;;;24.13;14.10;;;12.30;51.40;;;;;;5054901;28;20029;-63
2022/03/26 02:05:34;;;;;;;25.92;13.73;;;12.30;51.50;;;;;;5039931;28;20039;-63
2022/03/26 02:08:01;;;;;;;23.27;13.65;;;12.20;51.40;;;;;;5053698;28;20116;-63
2022/03/26 02:10:27;;;;;;;30.55;14.77;;;12.20;51.50;;;;;;5038016;28;20033;-63
2022/03/26 02:12:52;;;;;;;25.90;14.80;;;12.20;51.60;;;;;;5037487;28;20033;-63
2022/03/26 02:15:18;;;;;;;24.13;13.90;;;12.20;51.50;;;;;;5050952;28;20037;-63
2022/03/26 02:17:44;;;;;;;26.00;14.35;;;12.20;51.60;;;;;;5036183;28;20055;-63
2022/03/26 02:20:11;;;;;;;24.88;14.20;;;12.10;51.60;;;;;;5036987;28;20071;-63
2022/03/26 02:22:38;;;;;;;27.40;14.55;;;12.10;51.60;;;;;;5044060;28;20402;-61
2022/03/26 02:25:05;;;;;;;23.42;14.48;;;12.10;52.30;;;;;;5040178;28;20037;-61
2022/03/26 02:27:32;;;;;;;24.33;14.07;;;12.10;51.80;;;;;;5036962;28;20112;-61
2022/03/26 02:29:57;;;;;;;26.65;14.55;;;12.10;51.80;;;;;;5036876;28;20038;-61
2022/03/26 02:32:25;;;;;;;27.90;15.00;;;12.10;51.80;;;;;;5048854;28;20132;-61
2022/03/26 02:34:51;;;;;;;24.52;15.65;;;12.00;51.80;;;;;;5054453;28;20043;-61
2022/03/26 02:37:17;;;;;;;25.70;13.85;;;12.00;52.00;;;;;;5055340;28;20028;-61
2022/03/26 02:39:44;;;;;;;28.20;15.20;;;12.00;52.00;;;;;;5048431;28;20036;-61
2022/03/26 02:42:10;;;;;;;26.70;14.80;;;11.90;51.90;;;;;;5046231;28;20052;-61
2022/03/26 02:44:36;;;;;;;27.92;15.82;;;11.90;51.90;;;;;;5054221;28;20051;-61
2022/03/26 02:47:03;;;;;;;26.80;13.93;;;11.90;52.10;;;;;;5050348;28;20026;-61
2022/03/26 02:49:28;;;;;;;26.00;15.80;;;11.90;52.10;;;;;;5040107;28;20104;-61
2022/03/26 02:51:54;;;;;;;31.75;15.85;;;11.90;52.10;;;;;;5042670;28;20083;-61
2022/03/26 02:54:19;;;;;;;27.33;15.43;;;11.90;52.20;;;;;;5042176;28;20021;-61
2022/03/26 02:56:50;;;;;;;28.02;16.02;;;11.80;52.10;;;;;;5055822;28;20453;-61
2022/03/26 02:59:17;;;;;;;28.45;16.75;;;11.80;52.20;;;;;;5047597;28;20021;-61
2022/03/26 03:01:42;;;;;;;28.85;16.10;;;11.70;52.30;;;;;;5036325;28;20061;-61
2022/03/26 03:04:08;;;;;;;25.70;15.32;;;11.80;52.30;;;;;;5035732;28;20084;-61
2022/03/26 03:06:34;;;;;;;27.70;16.30;;;11.70;52.20;;;;;;5053624;28;20037;-61
2022/03/26 03:09:01;;;;;;;27.65;15.73;;;11.70;52.20;;;;;;5044413;28;20068;-61
2022/03/26 03:11:27;;;;;;;26.70;15.73;;;11.70;52.10;;;;;;5042244;28;20029;-61
2022/03/26 03:13:53;;;;;;;25.38;15.13;;;11.70;52.10;;;;;;5035950;28;20037;-61
2022/03/26 03:16:18;;;;;;;27.13;16.38;;;11.70;52.20;;;;;;5048714;28;20025;-61
2022/03/26 03:18:44;;;;;;;26.35;15.48;;;11.70;52.20;;;;;;5052766;28;20032;-61
2022/03/26 03:21:10;;;;;;;27.60;16.45;;;11.70;52.30;;;;;;5037225;28;20025;-61
2022/03/26 03:23:35;;;;;;;26.13;16.38;;;11.60;52.20;;;;;;5034476;28;20033;-61
2022/03/26 03:26:01;;;;;;;31.05;16.02;;;11.60;52.30;;;;;;5050554;28;20033;-61
2022/03/26 03:28:27;;;;;;;27.35;15.63;;;11.60;52.30;;;;;;5049119;28;20025;-61
2022/03/26 03:30:53;;;;;;;24.90;15.95;;;11.50;52.30;;;;;;5039691;28;20052;-61
2022/03/26 03:33:19;;;;;;;29.02;16.88;;;11.50;52.40;;;;;;5017803;28;20539;-61
2022/03/26 03:35:45;;;;;;;29.27;17.73;;;11.50;52.50;;;;;;5035096;28;20025;-61
2022/03/26 03:38:10;;;;;;;29.92;16.92;;;11.50;52.60;;;;;;5034327;28;20075;-61
2022/03/26 03:40:36;;;;;;;28.55;17.13;;;11.40;52.60;;;;;;5045544;28;20036;-61
2022/03/26 03:43:02;;;;;;;27.17;16.42;;;11.40;52.60;;;;;;5054450;28;20132;-61
2022/03/26 03:45:28;;;;;;;30.83;16.88;;;11.40;52.80;;;;;;5048158;28;20401;-61
2022/03/26 03:47:53;;;;;;;29.30;16.55;;;11.40;52.80;;;;;;5053975;28;20454;-61
2022/03/26 03:50:19;;;;;;;31.90;16.25;;;11.40;52.90;;;;;;5040521;28;20080;-61
2022/03/26 03:52:45;;;;;;;28.83;17.38;;;11.40;52.90;;;;;;5055152;28;20064;-61
2022/03/26 03:55:11;;;;;;;32.22;17.67;;;11.30;52.80;;;;;;5047887;28;20343;-61
2022/03/26 03:57:41;;;;;;;29.02;16.73;;;11.30;52.90;;;;;;5034776;28;20040;-61
2022/03/26 04:00:07;;;;;;;31.95;18.02;;;11.30;53.00;;;;;;5037876;28;20044;-61
2022/03/26 04:02:38;;;;;;;33.97;17.23;;;11.30;53.00;;;;;;5037688;28;20080;-61
2022/03/26 04:05:05;;;;;;;30.73;18.48;;;11.30;53.10;;;;;;5034153;28;20120;-61
2022/03/26 04:07:30;;;;;;;33.20;18.52;;;11.20;53.10;;;;;;5034044;28;20064;-61
2022/03/26 04:09:56;;;;;;;28.70;17.15;;;11.20;53.20;;;;;;5028640;28;20131;-61
2022/03/26 04:12:21;;;;;;;38.92;20.38;;;11.20;53.20;;;;;;5040313;28;20025;-61
2022/03/26 04:14:47;;;;;;;33.95;19.38;;;11.20;53.30;;;;;;5053456;28;20060;-61
2022/03/26 04:17:12;;;;;;;34.47;19.83;;;11.10;53.30;;;;;;5033433;28;20025;-61
2022/03/26 04:19:39;;;;;;;35.28;20.23;;;11.10;53.50;;;;;;5053391;28;20028;-61
2022/03/26 04:22:08;;;;;;;31.38;18.92;;;11.10;53.60;;;;;;5033736;28;20037;-61
2022/03/26 04:24:36;;;;;;;34.78;20.05;;;11.10;53.80;;;;;;5034522;28;20017;-61
2022/03/26 04:27:02;;;;;;;40.17;23.65;;;11.00;53.80;;;;;;5034729;28;20037;-62
2022/03/26 04:29:28;;;;;;;34.80;20.63;;;11.00;53.90;;;;;;5035339;28;20352;-61
2022/03/26 04:31:54;;;;;;;33.85;19.95;;;11.00;53.90;;;;;;5044295;28;20041;-61
2022/03/26 04:34:20;;;;;;;36.45;21.77;;;11.00;54.00;;;;;;5047464;28;20040;-61
2022/03/26 04:36:45;;;;;;;35.00;20.50;;;11.00;54.10;;;;;;5053696;28;20108;-61
2022/03/26 04:39:11;;;;;;;34.88;19.77;;;10.90;54.20;;;;;;5037324;28;20037;-61
2022/03/26 04:41:36;;;;;;;33.33;20.17;;;10.90;54.20;;;;;;5034649;28;20037;-61
2022/03/26 04:44:02;;;;;;;35.47;20.90;;;10.90;54.30;;;;;;5033275;28;20037;-61
2022/03/26 04:46:28;;;;;;;36.15;21.33;;;10.80;54.40;;;;;;5036460;28;20029;-61
2022/03/26 04:48:54;;;;;;;37.30;21.83;;;10.80;54.50;;;;;;5040833;28;20025;-61
2022/03/26 04:51:20;;;;;;;38.33;21.77;;;10.80;55.30;;;;;;5044532;28;20037;-61
2022/03/26 04:53:45;;;;;;;42.13;23.35;;;10.80;54.70;;;;;;5038039;28;20155;-61
2022/03/26 04:56:11;;;;;;;41.58;23.77;;;10.80;54.80;;;;;;5041959;28;20060;-61
2022/03/26 04:58:37;;;;;;;38.85;23.60;;;10.80;54.90;;;;;;5036540;28;20033;-61
2022/03/26 05:01:04;;;;;;;39.22;23.40;;;10.70;55.00;;;;;;5041007;28;20051;-61
2022/03/26 05:03:29;;;;;;;38.60;23.50;;;10.70;55.00;;;;;;5051354;28;20107;-61
2022/03/26 05:05:55;;;;;;;36.80;22.83;;;10.70;55.10;;;;;;5045536;28;20113;-61
2022/03/26 05:08:21;;;;;;;38.83;23.90;;;10.70;55.20;;;;;;5029200;28;20048;-61
2022/03/26 05:10:46;;;;;;;38.70;22.55;;;10.60;55.30;;;;;;5044548;28;20373;-61
2022/03/26 05:13:12;;;;;;;41.88;23.52;;;10.60;55.40;;;;;;5034399;28;20036;-61
2022/03/26 05:15:37;;;;;;;41.22;24.83;;;10.60;55.60;;;;;;5043222;28;20025;-61
2022/03/26 05:18:03;;;;;;;37.67;23.20;;;10.60;55.70;;;;;;5052973;28;20025;-64
2022/03/26 05:20:29;;;;;;;40.47;23.95;;;10.50;55.80;;;;;;5052668;28;20366;-64
2022/03/26 05:22:54;;;;;;;40.92;23.77;;;10.50;55.80;;;;;;5041720;28;20025;-63
2022/03/26 05:25:20;;;;;;;39.08;21.52;;;10.40;55.90;;;;;;5051243;28;20021;-63
2022/03/26 05:27:51;;;;;;;41.53;24.00;;;10.40;56.00;;;;;;5053248;28;20033;-64
2022/03/26 05:30:17;;;;;;;40.15;23.42;;;10.40;56.00;;;;;;5052823;28;20037;-61
2022/03/26 05:32:43;;;;;;;44.50;24.02;;;10.40;56.10;;;;;;5029964;28;20064;-61
2022/03/26 05:35:16;;;;;;;35.75;21.77;;;10.40;56.20;;;;;;5038771;28;20029;-63
2022/03/26 05:37:43;;;;;;;39.53;23.42;;;10.40;56.30;;;;;;5047220;28;20457;-61
2022/03/26 05:40:11;;;;;;;39.08;21.42;;;10.30;56.30;;;;;;5051390;28;20064;-61
2022/03/26 05:42:37;;;;;;;42.00;23.92;;;10.30;56.40;;;;;;5046533;28;20037;-61
2022/03/26 05:45:07;;;;;;;36.63;22.08;;;10.30;56.50;;;;;;5044558;28;20373;-62
2022/03/26 05:47:34;;;;;;;36.85;22.25;;;10.30;56.60;;;;;;5048026;28;20034;-62
2022/03/26 05:50:00;;;;;;;41.10;23.40;;;10.30;56.60;;;;;;5041854;28;20029;-62
2022/03/26 05:52:26;;;;;;;39.47;22.38;;;10.30;56.60;;;;;;5022919;28;20033;-62
2022/03/26 05:54:52;;;;;;;39.92;23.15;;;10.30;56.60;;;;;;5037522;28;20029;-62
2022/03/26 05:57:18;;;;;;;38.92;22.95;;;10.30;56.70;;;;;;5045659;28;20415;-63
2022/03/26 05:59:45;;;;;;;40.35;23.42;;;10.30;56.70;;;;;;5057360;28;20043;-62
2022/03/26 06:02:13;;;;;;;40.78;23.08;;;10.30;56.80;;;;;;5043350;28;20022;-62
2022/03/26 06:04:39;;;;;;;41.38;22.50;;;10.30;56.90;;;;;;5046012;28;20446;-62
2022/03/26 06:07:05;;;;;;;41.38;24.33;;;10.30;57.00;;;;;;5048019;28;20021;-62
2022/03/26 06:09:31;;;;;;;41.83;24.50;;;10.40;57.10;;;;;;5036176;28;20366;-62
2022/03/26 06:11:56;;;;;;;42.08;24.00;;;10.40;57.10;;;;;;5039411;28;20052;-62
2022/03/26 06:14:23;;;;;;;39.50;22.48;;;10.40;57.10;;;;;;5043777;28;20457;-62
2022/03/26 06:16:49;;;;;;;42.90;24.00;;;10.40;57.10;;;;;;5050760;28;20018;-62
2022/03/26 06:19:14;;;;;;;38.10;22.98;;;10.40;57.20;;;;;;5037112;28;20027;-62
2022/03/26 06:21:40;;;;;;;38.72;23.73;;;10.50;57.30;;;;;;5047500;28;20034;-63
2022/03/26 06:24:06;;;;;;;45.47;23.80;;;10.50;57.40;;;;;;5056201;28;20029;-62
2022/03/26 06:26:34;;;;;;;46.30;26.55;;;10.50;57.40;;;;;;5026056;28;20087;-62
2022/03/26 06:29:00;;;;;;;37.42;23.10;;;10.60;57.40;;;;;;5036788;28;20116;-62
2022/03/26 06:31:26;;;;;;;42.55;24.15;;;10.60;57.50;;;;;;5035515;28;20041;-62
2022/03/26 06:33:51;;;;;;;40.85;24.38;;;10.70;57.40;;;;;;5044730;28;20029;-62
2022/03/26 06:36:18;;;;;;;43.88;26.60;;;10.80;57.20;;;;;;5037496;28;20452;-62
2022/03/26 06:38:44;;;;;;;40.75;24.40;;;10.90;57.10;;;;;;5036519;28;20137;-62
2022/03/26 06:41:11;;;;;;;42.30;25.10;;;11.10;57.00;;;;;;5034930;28;20477;-62
2022/03/26 06:43:38;;;;;;;41.78;24.52;;;11.20;56.80;;;;;;5036298;28;20032;-62
2022/03/26 06:46:04;;;;;;;42.17;24.88;;;11.30;56.50;;;;;;5022111;28;20044;-62
2022/03/26 06:48:30;;;;;;;42.03;24.95;;;11.50;56.40;;;;;;5034623;28;20029;-62
2022/03/26 06:50:56;;;;;;;41.75;24.88;;;11.60;56.10;;;;;;5043358;28;20037;-62
2022/03/26 06:53:22;;;;;;;37.67;24.75;;;11.80;55.80;;;;;;5038028;28;20018;-62
2022/03/26 06:55:48;;;;;;;40.03;24.90;;;12.00;55.60;;;;;;5046249;28;20400;-61
2022/03/26 06:58:13;;;;;;;42.10;25.27;;;12.20;55.40;;;;;;5034183;28;20055;-62
2022/03/26 07:00:39;;;;;;;48.70;27.17;;;12.40;55.00;;;;;;5043145;28;20033;-62
2022/03/26 07:03:04;;;;;;;41.35;26.42;;;12.60;54.70;;;;;;5049020;28;20346;-62
2022/03/26 07:05:30;;;;;;;41.15;25.75;;;12.70;54.40;;;;;;5034238;28;20049;-62
2022/03/26 07:07:56;;;;;;;39.33;24.52;;;12.90;53.90;;;;;;5034650;28;20098;-62
2022/03/26 07:10:23;;;;;;;47.63;26.95;;;13.10;53.70;;;;;;5035418;28;20095;-62
2022/03/26 07:12:49;;;;;;;37.38;25.35;;;13.20;53.50;;;;;;5036682;28;20032;-62
2022/03/26 07:15:15;;;;;;;42.25;26.80;;;13.30;53.50;;;;;;5034495;28;20025;-62
2022/03/26 07:17:43;;;;;;;45.40;26.50;;;13.40;53.40;;;;;;5044732;28;20453;-62
2022/03/26 07:20:10;;;;;;;40.10;24.85;;;13.50;53.30;;;;;;5055544;28;20028;-62
2022/03/26 07:22:35;;;;;;;40.97;24.75;;;13.60;53.10;;;;;;5035089;28;20191;-63
2022/03/26 07:25:04;;;;;;;38.78;23.05;;;13.70;53.00;;;;;;5054527;28;20478;-63
2022/03/26 07:27:33;;;;;;;37.33;23.75;;;13.70;52.80;;;;;;5048258;28;20033;-62
2022/03/26 07:29:59;;;;;;;41.72;23.33;;;13.80;52.50;;;;;;5034660;28;20030;-63
2022/03/26 07:32:25;;;;;;;39.03;23.60;;;13.90;52.30;;;;;;5047240;28;20083;-62
2022/03/26 07:34:52;;;;;;;38.63;22.25;;;14.00;52.20;;;;;;5038366;28;20470;-63
2022/03/26 07:37:18;;;;;;;37.80;23.20;;;14.10;51.90;;;;;;5035026;28;20041;-62
2022/03/26 07:39:44;;;;;;;42.88;23.48;;;14.20;51.70;;;;;;5023591;28;20030;-63
2022/03/26 07:42:10;;;;;;;38.72;23.20;;;14.40;51.50;;;;;;5048014;28;20497;-62
2022/03/26 07:44:35;;;;;;;41.33;22.92;;;14.50;51.30;;;;;;5045702;28;20029;-62
2022/03/26 07:47:01;;;;;;;37.08;21.63;;;14.70;51.00;;;;;;5044934;28;20025;-62
2022/03/26 07:49:27;;;;;;;37.28;22.80;;;14.80;50.60;;;;;;5044889;28;20362;-62
2022/03/26 07:51:53;;;;;;;37.83;21.98;;;15.00;50.80;;;;;;5017845;28;20048;-62
2022/03/26 07:54:18;;;;;;;34.08;20.10;;;15.20;49.80;;;;;;5038558;28;20060;-62
2022/03/26 07:56:44;;;;;;;35.50;21.02;;;15.40;49.40;;;;;;5034209;28;20030;-62
2022/03/26 07:59:10;;;;;;;36.80;20.50;;;15.70;49.00;;;;;;5022174;28;20017;-62
2022/03/26 08:01:35;;;;;;;36.80;22.38;;;15.90;48.60;;;;;;5042112;28;20029;-62
2022/03/26 08:04:01;;;;;;;35.15;20.88;;;16.10;48.10;;;;;;5043397;28;20064;-63
2022/03/26 08:06:27;;;;;;;36.60;20.40;;;16.30;47.70;;;;;;5051346;28;20033;-63
2022/03/26 08:08:52;;;;;;;37.08;19.92;;;16.50;47.40;;;;;;5033651;28;20025;-62
2022/03/26 08:11:18;;;;;;;35.40;21.48;;;16.70;47.20;;;;;;5054248;28;20029;-62
2022/03/26 08:13:43;;;;;;;37.38;20.70;;;16.90;46.90;;;;;;5040214;28;20059;-61
2022/03/26 08:16:09;;;;;;;34.97;20.73;;;17.10;46.50;;;;;;5043394;28;20032;-64
2022/03/26 08:18:36;;;;;;;34.75;19.67;;;17.40;46.20;;;;;;5033991;28;20021;-62
2022/03/26 08:21:01;;;;;;;36.25;21.02;;;17.60;45.80;;;;;;5034664;28;20029;-62
2022/03/26 08:23:27;;;;;;;32.95;18.35;;;17.80;45.40;;;;;;5046108;28;20458;-62
2022/03/26 08:28:38;;;;;;;30.25;18.42;;;18.10;44.90;;;;;;5047016;28;20029;-64
2022/03/26 08:31:04;;;;;;;35.00;19.27;;;18.30;44.70;;;;;;5034697;28;20135;-62
2022/03/26 08:33:29;;;;;;;32.80;19.42;;;18.50;44.40;;;;;;5026685;28;20478;-66
2022/03/26 08:35:55;;;;;;;31.73;19.42;;;18.60;44.20;;;;;;5050208;28;20060;-65
2022/03/26 08:38:22;;;;;;;31.52;19.40;;;18.80;43.90;;;;;;5053572;28;20436;-66
2022/03/26 08:40:48;;;;;;;31.33;18.98;;;18.90;43.70;;;;;;5034414;28;20454;-66
2022/03/26 08:43:15;;;;;;;29.65;18.02;;;19.00;43.50;;;;;;5034565;28;20033;-64
2022/03/26 08:45:40;;;;;;;30.92;17.75;;;19.20;43.40;;;;;;5051910;28;20029;-64
2022/03/26 08:48:07;;;;;;;29.40;15.77;;;19.30;43.20;;;;;;5053317;28;20086;-63
2022/03/26 08:50:33;;;;;;;28.70;16.63;;;19.50;43.00;;;;;;5052374;28;20037;-64
2022/03/26 08:52:59;;;;;;;28.77;16.52;;;19.60;42.90;;;;;;5052233;28;20021;-64
2022/03/26 08:55:25;;;;;;;26.85;15.38;;;19.70;42.60;;;;;;5052967;28;20037;-63
2022/03/26 08:57:50;;;;;;;29.17;17.70;;;19.80;42.60;;;;;;5053287;28;20037;-64
2022/03/26 09:00:17;;;;;;;29.92;16.98;;;19.90;42.50;;;;;;5043634;28;20107;-64
2022/03/26 09:02:44;;;;;;;26.85;14.93;;;20.00;42.30;;;;;;5053140;28;20422;-64
2022/03/26 09:05:13;;;;;;;26.88;13.93;;;20.20;42.20;;;;;;5048980;28;20116;-64
2022/03/26 09:07:39;;;;;;;24.42;14.20;;;20.30;42.20;;;;;;5053380;28;20021;-63
2022/03/26 09:10:05;;;;;;;26.27;13.68;;;20.40;42.10;;;;;;5043787;28;20071;-64
2022/03/26 09:12:32;;;;;;;21.58;12.32;;;20.40;41.90;;;;;;5035015;28;20029;-64
2022/03/26 09:14:58;;;;;;;21.75;12.60;;;20.50;41.80;;;;;;5043278;28;20414;-64
2022/03/26 09:17:23;;;;;;;21.50;13.18;;;20.60;41.80;;;;;;5052851;28;20048;-64
2022/03/26 09:19:49;;;;;;;22.05;12.85;;;20.70;41.60;;;;;;5045450;28;20021;-65
2022/03/26 09:22:14;;;;;;;21.10;11.95;;;20.70;41.50;;;;;;5040940;28;20026;-65
2022/03/26 09:24:40;;;;;;;21.45;12.88;;;20.80;41.50;;;;;;5047741;28;20435;-65
2022/03/26 09:27:06;;;;;;;19.77;10.98;;;20.90;41.50;;;;;;5038395;28;20033;-64
2022/03/26 09:29:32;;;;;;;17.23;9.55;;;20.90;41.40;;;;;;5039752;28;20088;-64
2022/03/26 09:31:57;;;;;;;16.17;8.55;;;21.00;41.40;;;;;;5056292;28;20148;-64
2022/03/26 09:34:23;;;;;;;19.15;9.50;;;21.10;41.40;;;;;;5056927;28;20041;-64
2022/03/26 09:36:48;;;;;;;18.92;9.73;;;21.10;41.30;;;;;;5037314;28;20100;-64
2022/03/26 09:39:14;;;;;;;15.70;8.98;;;21.20;41.30;;;;;;5037072;28;20033;-64
2022/03/26 09:41:40;;;;;;;14.95;7.78;;;21.30;41.40;;;;;;5019970;28;20044;-65
2022/03/26 09:44:06;;;;;;;18.60;9.93;;;21.30;41.30;;;;;;5037365;28;20021;-64
2022/03/26 09:46:35;;;;;;;20.63;11.52;;;21.40;41.30;;;;;;5036212;28;20512;-64
2022/03/26 09:49:03;;;;;;;18.35;9.77;;;21.50;41.00;;;;;;5037211;28;20112;-65
2022/03/26 09:51:29;;;;;;;15.52;7.60;;;21.50;40.80;;;;;;5037273;28;20086;-64
2022/03/26 09:53:55;;;;;;;13.60;7.90;;;21.50;40.80;;;;;;5056490;28;20036;-64
2022/03/26 09:56:23;;;;;;;15.13;8.73;;;21.50;40.70;;;;;;5057786;28;20045;-64
2022/03/26 09:58:52;;;;;;;12.90;7.43;;;21.50;40.80;;;;;;5052462;28;20033;-64
2022/03/26 10:01:17;;;;;;;13.25;7.35;;;21.50;40.70;;;;;;5040870;28;20038;-64
2022/03/26 10:04:07;;;;;;;13.70;8.13;;;21.60;40.70;;;;;;5057052;28;20117;-65
2022/03/26 10:06:32;;;;;;;12.13;7.03;;;21.60;40.50;;;;;;5044203;28;20021;-65
2022/03/26 10:08:58;;;;;;;12.15;7.45;;;21.60;40.60;;;;;;5043256;28;20083;-65
2022/03/26 10:11:23;;;;;;;12.73;7.03;;;21.60;40.60;;;;;;5038319;28;20041;-65
2022/03/26 10:13:50;;;;;;;12.45;6.75;;;21.70;40.50;;;;;;5048525;28;20026;-65
2022/03/26 10:16:16;;;;;;;11.23;6.78;;;21.70;40.30;;;;;;5042317;28;20048;-62
2022/03/26 10:18:44;;;;;;;11.93;6.53;;;21.70;40.30;;;;;;5044116;28;20029;-62
2022/03/26 10:21:28;;;;;;;11.32;6.05;;;21.80;40.00;;;;;;5044212;28;20040;-62
2022/03/26 10:23:54;;;;;;;9.57;5.00;;;21.90;39.90;;;;;;5044918;28;20033;-62
2022/03/26 10:26:22;;;;;;;10.90;6.13;;;21.90;39.70;;;;;;5041533;28;20358;-62
2022/03/26 10:28:58;;;;;;;9.80;5.93;;;22.00;39.70;;;;;;5028793;28;20139;-63
2022/03/26 10:34:10;;;;;;;13.10;6.30;;;22.10;39.50;;;;;;5044157;28;20040;-62
2022/03/26 10:36:43;;;;;;;11.15;6.00;;;22.20;39.40;;;;;;5039920;28;20223;-62
2022/03/26 10:39:30;;;;;;;11.38;5.50;;;22.30;39.20;;;;;;5060189;28;20021;-62
2022/03/26 10:41:57;;;;;;;9.10;4.85;;;22.30;38.90;;;;;;5044168;28;20071;-62
2022/03/26 10:44:25;;;;;;;10.68;4.82;;;22.30;39.00;;;;;;5042259;28;20029;-63
2022/03/26 10:46:53;;;;;;;9.45;4.88;;;22.30;38.80;;;;;;5044685;28;20041;-62
2022/03/26 10:49:29;;;;;;;9.63;4.07;;;22.30;38.70;;;;;;5037457;28;20381;-62
2022/03/26 10:51:56;;;;;;;9.10;4.45;;;22.30;38.50;;;;;;5037901;28;20029;-62
2022/03/26 10:54:29;;;;;;;10.32;4.75;;;22.40;38.50;;;;;;5040678;28;20033;-62
2022/03/26 10:57:00;;;;;;;8.52;4.20;;;22.40;38.30;;;;;;5040205;28;20408;-62
2022/03/26 10:59:27;;;;;;;9.63;4.22;;;22.40;38.40;;;;;;5038468;28;20022;-62
2022/03/26 11:01:53;;;;;;;8.63;4.45;;;22.40;38.20;;;;;;5036774;28;20036;-62
2022/03/26 11:04:19;;;;;;;7.93;4.20;;;22.40;37.90;;;;;;5035629;28;20493;-61
2022/03/26 11:06:47;;;;;;;8.43;4.28;;;22.40;38.00;;;;;;5039060;28;20076;-62
2022/03/26 11:09:15;;;;;;;10.10;4.30;;;22.40;37.80;;;;;;5039351;28;20133;-62
2022/03/26 11:11:41;;;;;;;10.38;5.03;;;22.40;37.50;;;;;;5038127;28;20042;-68
2022/03/26 11:14:13;;;;;;;9.93;5.22;;;22.50;37.40;;;;;;5044210;28;20029;-68
2022/03/26 11:16:39;;;;;;;9.88;5.50;;;22.50;37.10;;;;;;5033909;28;20041;-68
2022/03/26 11:19:28;;;;;;;13.38;5.82;;;22.60;37.00;;;;;;5042396;28;20032;-68
2022/03/26 11:22:14;;;;;;;11.80;6.10;;;22.60;36.80;;;;;;5034845;28;20029;-69
2022/03/26 11:24:58;;;;;;;14.10;6.60;;;22.60;36.40;;;;;;5039147;28;20328;-69
2022/03/26 11:28:09;;;;;;;13.32;6.10;;;22.70;36.20;;;;;;5036304;28;20060;-69
2022/03/26 11:30:49;;;;;;;15.00;7.10;;;22.60;35.80;;;;;;5038673;28;20374;-69
2022/03/26 11:33:17;;;;;;;13.05;6.60;;;22.50;35.60;;;;;;5037847;28;20041;-69
2022/03/26 11:36:00;;;;;;;11.88;6.93;;;22.40;35.80;;;;;;5038534;28;20071;-69
2022/03/26 11:38:28;;;;;;;14.00;7.18;;;22.50;35.90;;;;;;5034542;28;20069;-69
2022/03/26 11:41:09;;;;;;;13.40;7.80;;;22.50;35.90;;;;;;5033949;28;20053;-69
2022/03/26 11:43:44;;;;;;;13.73;7.40;;;22.50;35.90;;;;;;5037896;28;20030;-68
2022/03/26 11:51:56;;;;;;;12.55;6.32;;;22.60;35.80;;;;;;5053508;28;20206;-68
2022/03/26 11:54:22;;;;;;;11.20;6.40;;;22.60;35.60;;;;;;5037881;28;20040;-67
2022/03/26 11:57:17;;;;;;;12.55;6.82;;;22.50;35.70;;;;;;5034264;28;20022;-67
2022/03/26 11:59:44;;;;;;;12.20;5.93;;;22.50;35.80;;;;;;5036018;28;20029;-67
2022/03/26 12:02:23;;;;;;;10.98;6.15;;;22.50;35.80;;;;;;5039034;28;20036;-67
2022/03/26 12:04:50;;;;;;;10.93;6.07;;;22.50;35.70;;;;;;5044536;28;20025;-65
2022/03/26 12:07:16;;;;;;;14.27;5.80;;;22.50;35.80;;;;;;5041265;28;20470;-67
2022/03/26 12:09:42;;;;;;;11.32;5.55;;;22.50;35.80;;;;;;5038618;28;20044;-67
2022/03/26 12:12:14;;;;;;;14.18;5.90;;;22.40;36.00;;;;;;5045672;28;20040;-67
2022/03/26 12:14:58;;;;;;;;;;;22.30;35.70;;;;;;5044354;28;20025;-67
2022/03/26 12:17:44;;;;;;;10.82;5.18;;;22.30;36.00;;;;;;5045346;28;20013;-67
2022/03/26 12:20:27;;;;;;;10.88;5.20;;;22.30;35.90;;;;;;5043435;28;20033;-66
2022/03/26 12:23:12;;;;;;;12.75;5.53;;;22.20;36.00;;;;;;5042031;28;20100;-66
2022/03/26 12:25:49;;;;;;;12.32;5.57;;;22.20;36.00;;;;;;5039675;28;20405;-66
2022/03/26 12:28:31;;;;;;;10.27;5.00;;;22.20;35.90;;;;;;5042428;28;20108;-67
2022/03/26 12:31:05;;;;;;;10.13;5.28;;;22.10;36.00;;;;;;5053595;28;20041;-67
2022/03/26 12:33:43;;;;;;;10.05;4.55;;;22.00;36.00;;;;;;5034227;28;20417;-68
2022/03/26 12:36:10;;;;;;;11.50;5.10;;;22.00;35.90;;;;;;5045106;28;20090;-66
2022/03/26 12:38:35;;;;;;;9.93;4.85;;;21.90;35.90;;;;;;5054131;28;20442;-68
2022/03/26 12:41:04;;;;;;;12.55;5.47;;;21.90;36.00;;;;;;5054445;28;20029;-67
2022/03/26 12:43:30;;;;;;;10.60;4.97;;;21.80;36.00;;;;;;5035932;28;20035;-67